Time;durP1;ratioP1;P1;durP2;ratioP2;P2;SDS_P1;SDS_P2;PMS_P1;PMS_P2;Temp;Humidity;BMP_temperature;BMP_pressure;BME280_temperature;BME280_humidity;BME280_pressure;Samples;Min_cycle;Max_cycle;Signal;HPM_P1;HPM_P2
2021/10/18 00:02:15;;;;;;;46.35;24.88;;;;;;;;;;5033218;28;20054;-61
2021/10/18 00:04:43;;;;;;;46.05;23.33;;;;;;;;;;5033415;28;20056;-62
2021/10/18 00:07:10;;;;;;;46.20;23.33;;;;;;;;;;5032348;28;20045;-63
2021/10/18 00:09:37;;;;;;;47.85;23.92;;;;;;;;;;5033013;28;20056;-65
2021/10/18 00:12:04;;;;;;;48.05;24.50;;;;;;;;;;5032864;28;20064;-63
2021/10/18 00:14:31;;;;;;;41.85;23.13;;;;;;;;;;5032947;28;20053;-63
2021/10/18 00:16:58;;;;;;;51.13;24.13;;;;;;;;;;5032545;28;20414;-64
2021/10/18 00:19:25;;;;;;;44.70;23.50;;;;;;;;;;5032787;28;20060;-63
2021/10/18 00:21:53;;;;;;;50.72;24.27;;;;;;;;;;5032513;28;20056;-63
2021/10/18 00:24:20;;;;;;;66.43;25.73;;;;;;;;;;5032887;28;20054;-63
2021/10/18 00:26:47;;;;;;;42.35;21.83;;;;;;;;;;5032395;28;20434;-64
2021/10/18 00:29:14;;;;;;;50.40;24.17;;;;;;;;;;5032688;28;20049;-63
2021/10/18 00:31:41;;;;;;;45.03;23.48;;;;;;;;;;5032663;28;20474;-62
2021/10/18 00:34:08;;;;;;;52.35;24.63;;;;;;;;;;5032371;28;20053;-62
2021/10/18 00:36:35;;;;;;;46.13;22.25;;;;;;;;;;5032161;28;20057;-61
2021/10/18 00:39:03;;;;;;;42.08;21.95;;;;;;;;;;5032362;28;20557;-63
2021/10/18 00:41:30;;;;;;;43.53;23.17;;;;;;;;;;5032088;28;20465;-62
2021/10/18 00:43:58;;;;;;;42.67;21.85;;;;;;;;;;5032157;28;20055;-64
2021/10/18 00:46:24;;;;;;;55.20;23.73;;;;;;;;;;5032377;28;20502;-63
2021/10/18 00:48:53;;;;;;;59.05;25.75;;;;;;;;;;5032164;28;20050;-62
2021/10/18 00:51:22;;;;;;;56.03;24.98;;;;;;;;;;5032575;28;20491;-62
2021/10/18 00:53:50;;;;;;;48.63;23.90;;;;;;;;;;5032247;28;20132;-64
2021/10/18 00:56:19;;;;;;;47.85;24.58;;;;;;;;;;5031984;28;20049;-64
2021/10/18 00:58:46;;;;;;;44.70;22.55;;;;;;;;;;5031853;28;20049;-62
2021/10/18 01:01:13;;;;;;;49.70;22.63;;;;;;;;;;5030909;28;20045;-63
2021/10/18 01:03:40;;;;;;;49.63;23.50;;;;;;;;;;5032154;28;20068;-64
2021/10/18 01:06:07;;;;;;;51.80;24.60;;;;;;;;;;5032343;28;20049;-62
2021/10/18 01:08:34;;;;;;;54.28;25.48;;;;;;;;;;5032008;28;20046;-63
2021/10/18 01:11:02;;;;;;;50.47;23.92;;;;;;;;;;5032178;28;20121;-62
2021/10/18 01:13:31;;;;;;;48.90;22.67;;;;;;;;;;5031884;28;20446;-63
2021/10/18 01:16:01;;;;;;;51.17;23.10;;;;;;;;;;5032077;28;20410;-63
2021/10/18 01:18:27;;;;;;;52.60;25.17;;;;;;;;;;5031767;28;20054;-62
2021/10/18 01:20:56;;;;;;;50.65;23.00;;;;;;;;;;5031785;28;20275;-63
2021/10/18 01:23:23;;;;;;;47.75;23.70;;;;;;;;;;5031816;28;20054;-63
2021/10/18 01:25:50;;;;;;;44.58;20.88;;;;;;;;;;5032105;28;20411;-64
2021/10/18 01:28:17;;;;;;;57.35;24.10;;;;;;;;;;5031434;28;20107;-61
2021/10/18 01:30:44;;;;;;;45.35;21.65;;;;;;;;;;5032163;28;20056;-63
2021/10/18 01:33:11;;;;;;;57.65;26.45;;;;;;;;;;5031746;28;20053;-63
2021/10/18 01:35:39;;;;;;;54.50;25.83;;;;;;;;;;5031910;28;20060;-62
2021/10/18 01:38:07;;;;;;;57.13;27.48;;;;;;;;;;5031591;28;20054;-63
2021/10/18 01:40:34;;;;;;;44.97;22.45;;;;;;;;;;5031772;28;20046;-63
2021/10/18 01:43:01;;;;;;;45.33;21.70;;;;;;;;;;5031513;28;20057;-63
2021/10/18 01:45:28;;;;;;;46.67;21.88;;;;;;;;;;5032065;28;20041;-64
2021/10/18 01:47:55;;;;;;;43.50;20.65;;;;;;;;;;5031407;28;20050;-63
2021/10/18 01:50:25;;;;;;;54.22;23.35;;;;;;;;;;5032153;28;20107;-64
2021/10/18 01:52:53;;;;;;;47.43;23.70;;;;;;;;;;5031811;28;20387;-63
2021/10/18 01:55:23;;;;;;;43.30;19.63;;;;;;;;;;5031395;28;20275;-63
2021/10/18 01:57:51;;;;;;;45.90;21.30;;;;;;;;;;5011512;28;20050;-63
2021/10/18 02:00:18;;;;;;;49.05;21.05;;;;;;;;;;5011407;28;20053;-63
2021/10/18 02:02:46;;;;;;;41.63;19.73;;;;;;;;;;5011638;28;20050;-63
2021/10/18 02:05:15;;;;;;;45.55;22.08;;;;;;;;;;5011661;28;20116;-62
2021/10/18 02:07:43;;;;;;;43.97;20.75;;;;;;;;;;5011448;28;20050;-64
2021/10/18 02:10:10;;;;;;;47.13;21.20;;;;;;;;;;5011451;28;20056;-64
2021/10/18 02:12:39;;;;;;;51.95;22.65;;;;;;;;;;5012317;28;20042;-65
2021/10/18 02:15:07;;;;;;;51.85;22.38;;;;;;;;;;5015282;28;20053;-64
2021/10/18 02:17:35;;;;;;;47.80;21.98;;;;;;;;;;5015241;28;20052;-64
2021/10/18 02:20:02;;;;;;;49.38;23.23;;;;;;;;;;5015245;28;20046;-64
2021/10/18 02:22:29;;;;;;;49.90;22.08;;;;;;;;;;5015189;28;20054;-63
2021/10/18 02:24:57;;;;;;;47.55;22.85;;;;;;;;;;5015151;28;20053;-64
2021/10/18 02:27:24;;;;;;;51.13;22.73;;;;;;;;;;5015059;28;20072;-63
2021/10/18 02:29:53;;;;;;;48.53;22.77;;;;;;;;;;5014945;28;20558;-63
2021/10/18 02:32:20;;;;;;;47.00;21.40;;;;;;;;;;5014942;28;20050;-64
2021/10/18 02:34:47;;;;;;;47.08;21.63;;;;;;;;;;5015135;28;20059;-65
2021/10/18 02:37:14;;;;;;;43.78;21.15;;;;;;;;;;5015031;28;20050;-63
2021/10/18 02:39:41;;;;;;;45.35;20.98;;;;;;;;;;5015022;28;20081;-63
2021/10/18 02:42:08;;;;;;;42.78;19.30;;;;;;;;;;5014487;28;20085;-64
2021/10/18 02:44:35;;;;;;;47.42;20.67;;;;;;;;;;5014839;28;20042;-63
2021/10/18 02:47:03;;;;;;;42.42;20.15;;;;;;;;;;5014397;28;20415;-64
2021/10/18 02:49:30;;;;;;;52.47;24.35;;;;;;;;;;5014757;28;20052;-62
2021/10/18 02:51:57;;;;;;;45.83;20.95;;;;;;;;;;5014517;28;20054;-63
2021/10/18 02:54:24;;;;;;;49.13;20.65;;;;;;;;;;5014004;28;20057;-64
2021/10/18 02:56:51;;;;;;;51.88;22.05;;;;;;;;;;5031951;28;20394;-64
2021/10/18 02:59:18;;;;;;;43.38;20.13;;;;;;;;;;5034401;28;20056;-62
2021/10/18 03:01:45;;;;;;;48.80;20.52;;;;;;;;;;5034159;28;20402;-65
2021/10/18 03:04:13;;;;;;;49.15;19.70;;;;;;;;;;5034694;28;20477;-63
2021/10/18 03:06:40;;;;;;;46.67;20.15;;;;;;;;;;5033909;28;20136;-64
2021/10/18 03:09:07;;;;;;;46.22;20.55;;;;;;;;;;5033975;28;20083;-63
2021/10/18 03:11:34;;;;;;;50.80;20.65;;;;;;;;;;5033977;28;20042;-63
2021/10/18 03:14:01;;;;;;;42.20;20.08;;;;;;;;;;5034396;28;20052;-64
2021/10/18 03:16:28;;;;;;;47.05;20.77;;;;;;;;;;5033900;28;20061;-64
2021/10/18 03:18:55;;;;;;;46.80;21.10;;;;;;;;;;5034234;28;20084;-63
2021/10/18 03:21:24;;;;;;;49.22;20.08;;;;;;;;;;5033935;28;20071;-63
2021/10/18 03:23:51;;;;;;;68.88;33.33;;;;;;;;;;5033387;28;20135;-63
2021/10/18 03:26:19;;;;;;;69.95;32.90;;;;;;;;;;5033717;28;20076;-63
2021/10/18 03:28:46;;;;;;;54.40;24.40;;;;;;;;;;5034130;28;20092;-62
2021/10/18 03:31:13;;;;;;;54.95;21.27;;;;;;;;;;5033528;28;20052;-63
2021/10/18 03:33:41;;;;;;;51.33;22.00;;;;;;;;;;5033705;28;20057;-62
2021/10/18 03:36:10;;;;;;;54.78;23.23;;;;;;;;;;5033476;28;20422;-63
2021/10/18 03:38:39;;;;;;;49.80;21.42;;;;;;;;;;5033655;28;20049;-62
2021/10/18 03:41:06;;;;;;;47.20;22.38;;;;;;;;;;5033441;28;20551;-64
2021/10/18 03:43:33;;;;;;;50.15;21.60;;;;;;;;;;5033656;28;20085;-64
2021/10/18 03:46:00;;;;;;;44.42;19.92;;;;;;;;;;5033586;28;20049;-64
2021/10/18 03:48:27;;;;;;;50.50;21.00;;;;;;;;;;5033359;28;20057;-64
2021/10/18 03:50:54;;;;;;;51.55;21.30;;;;;;;;;;5033053;28;20517;-63
2021/10/18 03:53:21;;;;;;;47.95;20.13;;;;;;;;;;5033224;28;20041;-63
2021/10/18 03:55:50;;;;;;;46.42;21.13;;;;;;;;;;5033096;28;20486;-63
2021/10/18 03:58:17;;;;;;;52.10;22.83;;;;;;;;;;5032963;28;20065;-64
2021/10/18 04:00:44;;;;;;;50.47;21.30;;;;;;;;;;5033133;28;20049;-63
2021/10/18 04:03:11;;;;;;;47.17;20.98;;;;;;;;;;5033084;28;20089;-64
2021/10/18 04:05:38;;;;;;;49.13;23.02;;;;;;;;;;5033061;28;20463;-64
2021/10/18 04:08:06;;;;;;;49.50;21.23;;;;;;;;;;5032814;28;20055;-62
2021/10/18 04:10:33;;;;;;;57.55;24.08;;;;;;;;;;5032869;28;20085;-63
2021/10/18 04:13:02;;;;;;;56.90;22.95;;;;;;;;;;5032747;28;20370;-64
2021/10/18 04:15:29;;;;;;;53.20;21.55;;;;;;;;;;5032771;28;20057;-63
2021/10/18 04:17:56;;;;;;;55.72;23.35;;;;;;;;;;5032536;28;20050;-63
2021/10/18 04:20:23;;;;;;;51.22;21.95;;;;;;;;;;5032779;28;20045;-62
2021/10/18 04:22:50;;;;;;;55.33;22.88;;;;;;;;;;5032714;28;20054;-63
2021/10/18 04:25:17;;;;;;;50.88;21.92;;;;;;;;;;5032404;28;20056;-65
2021/10/18 04:27:44;;;;;;;54.10;22.52;;;;;;;;;;5032416;28;20046;-63
2021/10/18 04:30:13;;;;;;;55.33;24.10;;;;;;;;;;5032744;28;20049;-61
2021/10/18 04:32:40;;;;;;;54.53;23.13;;;;;;;;;;5032331;28;20055;-62
2021/10/18 04:35:08;;;;;;;50.63;23.05;;;;;;;;;;5032625;28;20068;-63
2021/10/18 04:37:35;;;;;;;57.60;23.77;;;;;;;;;;5032039;28;20049;-64
2021/10/18 04:40:02;;;;;;;52.58;23.30;;;;;;;;;;5032262;28;20057;-62
2021/10/18 04:42:29;;;;;;;57.22;23.67;;;;;;;;;;5032221;28;20049;-64
2021/10/18 04:44:56;;;;;;;51.33;22.48;;;;;;;;;;5032418;28;20479;-64
2021/10/18 04:47:24;;;;;;;55.38;23.50;;;;;;;;;;5032144;28;20061;-63
2021/10/18 04:49:51;;;;;;;58.70;25.13;;;;;;;;;;5032324;28;20045;-64
2021/10/18 04:52:18;;;;;;;54.92;21.42;;;;;;;;;;5032398;28;20049;-63
2021/10/18 04:54:45;;;;;;;55.50;22.80;;;;;;;;;;5032109;28;20049;-63
2021/10/18 04:57:12;;;;;;;49.45;21.48;;;;;;;;;;5031601;28;20427;-63
2021/10/18 04:59:39;;;;;;;55.42;22.20;;;;;;;;;;5032066;28;20148;-63
2021/10/18 05:02:06;;;;;;;58.80;24.75;;;;;;;;;;5031679;28;20438;-64
2021/10/18 05:04:34;;;;;;;57.17;24.17;;;;;;;;;;5032422;28;20055;-63
2021/10/18 05:07:01;;;;;;;55.50;22.80;;;;;;;;;;5031710;28;20548;-63
2021/10/18 05:09:28;;;;;;;53.97;22.15;;;;;;;;;;5031981;28;20049;-64
2021/10/18 05:11:55;;;;;;;56.28;24.25;;;;;;;;;;5031861;28;20060;-63
2021/10/18 05:14:22;;;;;;;57.88;23.50;;;;;;;;;;5031797;28;20586;-62
2021/10/18 05:16:51;;;;;;;52.47;24.27;;;;;;;;;;5031939;28;20046;-64
2021/10/18 05:19:18;;;;;;;56.22;24.65;;;;;;;;;;5032151;28;20123;-63
2021/10/18 05:21:46;;;;;;;58.20;23.58;;;;;;;;;;5031601;28;20478;-63
2021/10/18 05:24:13;;;;;;;56.10;22.85;;;;;;;;;;5031748;28;20049;-64
2021/10/18 05:26:40;;;;;;;57.65;23.25;;;;;;;;;;5031425;28;20045;-65
2021/10/18 05:29:07;;;;;;;58.65;21.77;;;;;;;;;;5031694;28;20088;-64
2021/10/18 05:31:35;;;;;;;60.67;26.27;;;;;;;;;;5031622;28;20049;-62
2021/10/18 05:34:02;;;;;;;54.03;22.88;;;;;;;;;;5031567;28;20104;-64
2021/10/18 05:36:29;;;;;;;52.80;22.80;;;;;;;;;;5031375;28;20046;-64
2021/10/18 05:38:57;;;;;;;61.25;25.48;;;;;;;;;;5031354;28;20053;-63
2021/10/18 05:41:24;;;;;;;59.40;23.73;;;;;;;;;;5031419;28;20414;-63
2021/10/18 05:43:51;;;;;;;61.03;24.98;;;;;;;;;;5031887;28;20413;-63
2021/10/18 05:46:18;;;;;;;53.88;22.20;;;;;;;;;;5041529;22;20382;-77
2021/10/18 05:48:45;;;;;;;52.50;23.02;;;;;;;;;;5014391;28;20046;-77
2021/10/18 05:51:12;;;;;;;55.90;23.48;;;;;;;;;;5016163;28;20507;-76
2021/10/18 05:53:39;;;;;;;62.22;24.83;;;;;;;;;;5015754;28;20097;-77
2021/10/18 05:56:07;;;;;;;58.65;24.77;;;;;;;;;;5016134;28;20045;-77
2021/10/18 05:58:34;;;;;;;52.88;23.33;;;;;;;;;;5017640;28;20050;-78
2021/10/18 06:01:01;;;;;;;52.60;22.35;;;;;;;;;;5017633;28;20053;-77
2021/10/18 06:03:27;;;;;;;54.78;23.00;;;;;;;;;;5015546;28;20050;-76
2021/10/18 06:05:54;;;;;;;56.00;22.58;;;;;;;;;;5016100;28;20046;-77
2021/10/18 06:08:21;;;;;;;60.25;22.73;;;;;;;;;;5015309;28;20053;-76
2021/10/18 06:10:48;;;;;;;55.95;21.27;;;;;;;;;;5016487;28;20104;-78
2021/10/18 06:13:16;;;;;;;53.08;22.20;;;;;;;;;;5017649;28;20100;-77
2021/10/18 06:15:43;;;;;;;67.95;29.63;;;;;;;;;;5015533;28;20185;-77
2021/10/18 06:18:12;;;;;;;69.40;29.83;;;;;;;;;;5015878;28;20050;-77
2021/10/18 06:20:41;;;;;;;61.58;27.20;;;;;;;;;;5015564;28;20509;-77
2021/10/18 06:23:08;;;;;;;58.47;23.30;;;;;;;;;;5015520;28;20046;-77
2021/10/18 06:25:35;;;;;;;69.50;28.85;;;;;;;;;;5015748;28;20096;-77
2021/10/18 06:28:02;;;;;;;57.25;22.70;;;;;;;;;;5015832;28;20108;-77
2021/10/18 06:30:30;;;;;;;49.92;20.98;;;;;;;;;;5015460;28;20096;-77
2021/10/18 06:32:57;;;;;;;53.85;20.15;;;;;;;;;;5015960;28;20053;-77
2021/10/18 06:35:24;;;;;;;47.80;22.00;;;;;;;;;;5015702;28;20053;-77
2021/10/18 06:37:51;;;;;;;60.83;22.17;;;;;;;;;;5016002;28;20528;-77
2021/10/18 06:40:18;;;;;;;54.38;21.88;;;;;;;;;;5016661;28;20100;-77
2021/10/18 06:42:45;;;;;;;56.17;23.60;;;;;;;;;;5016300;28;20095;-77
2021/10/18 06:45:12;;;;;;;55.05;23.65;;;;;;;;;;5016445;28;20061;-77
2021/10/18 06:47:41;;;;;;;54.03;21.15;;;;;;;;;;5016133;28;20042;-77
2021/10/18 06:50:09;;;;;;;45.30;20.70;;;;;;;;;;5015698;28;20525;-77
2021/10/18 06:52:38;;;;;;;50.55;21.17;;;;;;;;;;5016463;28;20109;-77
2021/10/18 06:55:08;;;;;;;47.00;22.25;;;;;;;;;;5015610;28;20156;-77
2021/10/18 06:57:36;;;;;;;59.65;21.48;;;;;;;;;;5015952;28;20053;-77
2021/10/18 07:00:04;;;;;;;51.40;20.35;;;;;;;;;;5014993;28;20104;-77
2021/10/18 07:02:30;;;;;;;51.58;22.33;;;;;;;;;;5016375;28;20054;-77
2021/10/18 07:04:59;;;;;;;50.88;22.40;;;;;;;;;;5016054;28;20053;-77
2021/10/18 07:07:27;;;;;;;48.75;20.88;;;;;;;;;;5016329;28;20100;-77
2021/10/18 07:09:59;;;;;;;51.75;21.20;;;;;;;;;;5015887;28;20045;-79
2021/10/18 07:12:28;;;;;;;48.75;21.00;;;;;;;;;;5016154;28;20112;-77
2021/10/18 07:14:55;;;;;;;47.42;20.30;;;;;;;;;;5015600;28;20046;-77
2021/10/18 07:17:22;;;;;;;48.47;20.65;;;;;;;;;;5015204;28;20057;-77
2021/10/18 07:19:49;;;;;;;43.60;20.38;;;;;;;;;;5014817;28;20129;-77
2021/10/18 07:22:18;;;;;;;46.58;19.38;;;;;;;;;;5014417;28;20444;-77
2021/10/18 07:24:45;;;;;;;51.58;21.27;;;;;;;;;;5015436;28;20065;-78
2021/10/18 07:27:12;;;;;;;47.53;19.90;;;;;;;;;;5015985;28;20053;-78
2021/10/18 07:29:38;;;;;;;46.00;20.08;;;;;;;;;;5018443;28;20456;-77
2021/10/18 07:32:06;;;;;;;47.85;21.30;;;;;;;;;;5022190;28;20412;-78
2021/10/18 07:34:33;;;;;;;55.13;22.38;;;;;;;;;;5030287;28;20053;-77
2021/10/18 07:37:01;;;;;;;47.75;20.45;;;;;;;;;;5037671;28;20034;-76
2021/10/18 07:39:29;;;;;;;62.28;25.08;;;;;;;;;;5038691;28;20058;-77
2021/10/18 07:41:57;;;;;;;55.17;22.35;;;;;;;;;;5033904;28;20050;-78
2021/10/18 07:44:25;;;;;;;47.95;21.17;;;;;;;;;;5020619;28;20104;-78
2021/10/18 07:46:55;;;;;;;52.65;21.58;;;;;;;;;;5017927;28;20050;-78
2021/10/18 07:49:22;;;;;;;57.28;24.45;;;;;;;;;;5016853;28;20049;-78
2021/10/18 07:51:49;;;;;;;56.00;22.85;;;;;;;;;;5016936;28;20046;-78
2021/10/18 07:54:16;;;;;;;62.08;24.25;;;;;;;;;;5015488;28;20042;-77
2021/10/18 07:56:44;;;;;;;53.13;23.05;;;;;;;;;;5014617;28;20540;-77
2021/10/18 08:02:33;;;;;;;54.28;20.30;;;;;;;;;;5011444;28;20048;-77
2021/10/18 08:04:59;;;;;;;56.25;22.98;;;;;;;;;;5013995;28;20077;-77
2021/10/18 08:07:28;;;;;;;53.65;20.98;;;;;;;;;;5014232;28;20398;-78
2021/10/18 08:09:57;;;;;;;54.95;21.00;;;;;;;;;;5015006;28;20042;-78
2021/10/18 08:12:25;;;;;;;53.63;19.98;;;;;;;;;;5014726;28;20078;-78
2021/10/18 08:14:52;;;;;;;52.83;21.25;;;;;;;;;;5015716;28;20092;-78
2021/10/18 08:17:19;;;;;;;52.42;21.40;;;;;;;;;;5015676;28;20061;-78
2021/10/18 08:19:45;;;;;;;54.22;21.23;;;;;;;;;;5015433;28;20045;-78
2021/10/18 08:22:12;;;;;;;54.40;22.23;;;;;;;;;;5013507;28;20053;-77
2021/10/18 08:24:39;;;;;;;64.25;24.73;;;;;;;;;;5017199;28;20046;-78
2021/10/18 08:27:06;;;;;;;55.30;21.83;;;;;;;;;;5015292;28;20460;-79
2021/10/18 08:29:34;;;;;;;61.05;23.20;;;;;;;;;;5015779;28;20078;-78
2021/10/18 08:32:01;;;;;;;64.63;25.60;;;;;;;;;;5014216;28;20659;-77
2021/10/18 08:34:31;;;;;;;66.50;27.05;;;;;;;;;;5025794;28;20053;-77
2021/10/18 08:36:58;;;;;;;61.50;24.50;;;;;;;;;;5026787;28;20052;-78
2021/10/18 08:42:13;;;;;;;58.25;22.77;;;;;;;;;;5015670;28;20057;-78
2021/10/18 08:44:42;;;;;;;62.25;24.83;;;;;;;;;;5016035;28;20053;-78
2021/10/18 08:47:09;;;;;;;59.95;21.98;;;;;;;;;;5014466;28;20046;-78
2021/10/18 08:49:35;;;;;;;57.70;23.25;;;;;;;;;;5014926;28;20050;-78
2021/10/18 08:52:02;;;;;;;63.33;25.25;;;;;;;;;;5014056;28;20050;-78
2021/10/18 08:54:32;;;;;;;56.55;23.20;;;;;;;;;;5014234;28;20045;-78
2021/10/18 08:56:59;;;;;;;67.32;25.50;;;;;;;;;;5014430;28;20050;-78
2021/10/18 08:59:28;;;;;;;66.53;25.10;;;;;;;;;;5014535;28;20185;-78
2021/10/18 09:01:57;;;;;;;59.35;23.90;;;;;;;;;;5013984;28;20045;-78
2021/10/18 09:04:27;;;;;;;64.80;24.90;;;;;;;;;;5014665;28;20061;-78
2021/10/18 09:06:56;;;;;;;65.85;26.10;;;;;;;;;;5014356;28;20149;-78
2021/10/18 09:09:26;;;;;;;63.45;24.17;;;;;;;;;;5014925;28;20045;-78
2021/10/18 09:11:55;;;;;;;60.38;26.55;;;;;;;;;;5016384;28;20056;-78
2021/10/18 09:14:22;;;;;;;62.20;26.73;;;;;;;;;;5018947;28;20046;-78
2021/10/18 09:16:49;;;;;;;58.38;25.13;;;;;;;;;;5018799;28;20057;-78
2021/10/18 09:19:19;;;;;;;59.58;23.95;;;;;;;;;;5018014;28;20124;-78
2021/10/18 09:21:48;;;;;;;70.47;27.85;;;;;;;;;;5016499;28;20050;-78
2021/10/18 09:24:17;;;;;;;67.32;26.98;;;;;;;;;;5014078;28;20056;-78
2021/10/18 09:26:45;;;;;;;68.88;27.92;;;;;;;;;;5014926;28;20050;-77
2021/10/18 09:29:14;;;;;;;79.97;30.65;;;;;;;;;;5014547;28;20479;-77
2021/10/18 09:31:44;;;;;;;63.45;26.15;;;;;;;;;;5015389;28;20108;-78
2021/10/18 09:34:13;;;;;;;57.70;23.52;;;;;;;;;;5016072;28;20088;-78
2021/10/18 09:36:43;;;;;;;67.72;25.17;;;;;;;;;;5015903;28;20085;-78
2021/10/18 09:39:25;;;;;;;67.65;27.75;;;;;;;;;;5016243;28;20104;-77
2021/10/18 09:42:01;;;;;;;66.13;25.77;;;;;;;;;;5017081;28;20081;-77
2021/10/18 09:45:01;;;;;;;67.70;27.90;;;;;;;;;;5017045;28;20640;-78
2021/10/18 09:48:10;;;;;;;64.00;24.30;;;;;;;;;;5011796;28;20053;-78
2021/10/18 10:52:55;;;;;;;75.78;32.00;;;;;;;;;;5040214;28;20077;-77
2021/10/18 10:55:24;;;;;;;70.65;28.80;;;;;;;;;;5040282;28;20057;-77
2021/10/18 10:57:54;;;;;;;72.80;31.35;;;;;;;;;;5039855;28;20037;-77
2021/10/18 11:00:34;;;;;;;66.93;28.15;;;;;;;;;;5039785;28;20034;-77
2021/10/18 11:03:42;;;;;;;69.97;27.92;;;;;;;;;;5040316;28;20068;-77
2021/10/18 11:06:11;;;;;;;67.30;27.98;;;;;;;;;;5040126;28;20064;-77
2021/10/18 11:08:40;;;;;;;62.83;26.70;;;;;;;;;;5039901;28;20038;-78
2021/10/18 11:15:25;;;;;;;65.50;27.98;;;;;;;;;;5036377;28;20106;-78
2021/10/18 11:17:55;;;;;;;62.10;26.95;;;;;;;;;;5035917;28;20054;-78
2021/10/18 11:20:23;;;;;;;60.70;26.33;;;;;;;;;;5039465;28;20053;-78
2021/10/18 11:22:52;;;;;;;63.30;27.85;;;;;;;;;;5039097;28;20061;-78
2021/10/18 11:25:23;;;;;;;63.17;28.48;;;;;;;;;;5038459;28;20073;-79
2021/10/18 11:27:51;;;;;;;60.03;26.48;;;;;;;;;;5038033;28;20029;-78
2021/10/18 11:30:20;;;;;;;62.75;26.77;;;;;;;;;;5019473;28;20050;-78
2021/10/18 11:32:56;;;;;;;58.45;25.73;;;;;;;;;;5021129;28;20394;-78
2021/10/18 11:35:23;;;;;;;72.63;31.70;;;;;;;;;;5019266;28;20046;-78
2021/10/18 11:37:53;;;;;;;66.57;27.70;;;;;;;;;;5019780;28;20054;-78
2021/10/18 11:47:42;;;;;;;68.53;27.20;;;;;;;;;;5038150;22;20108;-86
2021/10/18 11:50:16;;;;;;;56.85;26.30;;;;;;;;;;5047289;28;20118;-85
2021/10/18 11:52:46;;;;;;;68.13;28.80;;;;;;;;;;5052492;28;20049;-86
2021/10/18 11:55:15;;;;;;;65.82;30.63;;;;;;;;;;5051857;28;20053;-85
2021/10/18 12:01:06;;;;;;;60.28;26.75;;;;;;;;;;5031206;28;20044;-85
2021/10/18 12:04:22;;;;;;;62.30;28.08;;;;;;;;;;5031584;28;20117;-85
2021/10/18 12:06:50;;;;;;;63.60;27.92;;;;;;;;;;5031517;28;20061;-86
2021/10/18 12:09:27;;;;;;;69.90;29.60;;;;;;;;;;5034930;28;20046;-84
2021/10/18 12:11:54;;;;;;;65.63;29.30;;;;;;;;;;5036065;28;20054;-87
2021/10/18 12:14:21;;;;;;;71.38;30.67;;;;;;;;;;5036423;28;20050;-82
2021/10/18 12:16:48;;;;;;;70.80;31.58;;;;;;;;;;5036201;28;20546;-83
2021/10/18 12:19:15;;;;;;;66.57;29.95;;;;;;;;;;5031283;28;20050;-85
2021/10/18 12:21:44;;;;;;;73.90;33.13;;;;;;;;;;5032080;28;20088;-85
2021/10/18 12:24:17;;;;;;;74.00;32.10;;;;;;;;;;5051492;28;20045;-85
2021/10/18 12:26:46;;;;;;;68.18;30.25;;;;;;;;;;5050577;28;20045;-82
2021/10/18 12:29:15;;;;;;;73.90;32.17;;;;;;;;;;5050239;28;20053;-84
2021/10/18 12:31:43;;;;;;;64.82;28.30;;;;;;;;;;5050224;28;20046;-83
2021/10/18 12:34:16;;;;;;;62.45;29.80;;;;;;;;;;5049381;28;20124;-85
2021/10/18 12:40:08;;;;;;;67.07;30.38;;;;;;;;;;5048389;28;20035;-84
2021/10/18 12:42:45;;;;;;;64.43;28.98;;;;;;;;;;5027200;28;20049;-85
2021/10/18 12:45:15;;;;;;;62.90;28.83;;;;;;;;;;5028154;28;20140;-83
2021/10/18 12:47:48;;;;;;;67.85;31.80;;;;;;;;;;5027303;28;20058;-83
2021/10/18 12:50:17;;;;;;;79.85;35.70;;;;;;;;;;5027405;28;20157;-84
2021/10/18 12:52:52;;;;;;;67.65;32.83;;;;;;;;;;5022021;28;20056;-83
2021/10/18 12:55:22;;;;;;;58.78;26.02;;;;;;;;;;5019313;28;20088;-84
2021/10/18 12:57:51;;;;;;;70.22;29.60;;;;;;;;;;5017829;28;20060;-85
2021/10/18 13:00:19;;;;;;;69.75;30.48;;;;;;;;;;5019250;28;20053;-85
2021/10/18 13:02:47;;;;;;;67.28;31.15;;;;;;;;;;5019603;28;20134;-83
2021/10/18 13:05:18;;;;;;;68.40;30.10;;;;;;;;;;5019481;28;20105;-82
2021/10/18 13:07:54;;;;;;;65.80;29.38;;;;;;;;;;5019887;28;20056;-86
2021/10/18 13:10:26;;;;;;;67.93;31.52;;;;;;;;;;5019177;28;20046;-85
2021/10/18 13:12:53;;;;;;;64.85;28.58;;;;;;;;;;5019484;28;20412;-83
2021/10/18 13:15:20;;;;;;;65.13;32.30;;;;;;;;;;5019086;28;20108;-85
2021/10/18 13:17:48;;;;;;;64.68;28.67;;;;;;;;;;5031543;28;20046;-84
2021/10/18 13:20:17;;;;;;;70.07;30.50;;;;;;;;;;5026485;28;20046;-84
2021/10/18 13:22:45;;;;;;;76.82;36.75;;;;;;;;;;5019048;28;20046;-84
2021/10/18 13:25:13;;;;;;;68.03;29.50;;;;;;;;;;5017711;28;20041;-86
2021/10/18 13:27:42;;;;;;;66.10;30.77;;;;;;;;;;5018924;28;20061;-83
2021/10/18 13:30:13;;;;;;;64.47;30.27;;;;;;;;;;5018618;28;20056;-84
2021/10/18 13:32:40;;;;;;;66.88;31.15;;;;;;;;;;5017621;28;20046;-83
2021/10/18 13:35:09;;;;;;;60.95;28.77;;;;;;;;;;5017091;28;20046;-83
2021/10/18 13:37:37;;;;;;;58.80;28.23;;;;;;;;;;5021910;28;20050;-83
2021/10/18 13:40:04;;;;;;;69.47;30.88;;;;;;;;;;5021250;28;20046;-83
2021/10/18 13:42:31;;;;;;;66.07;33.28;;;;;;;;;;5018488;28;20104;-83
2021/10/18 13:45:00;;;;;;;64.85;29.80;;;;;;;;;;5019269;28;20050;-84
2021/10/18 13:47:27;;;;;;;71.00;32.60;;;;;;;;;;5033530;28;20030;-87
2021/10/18 13:49:56;;;;;;;71.13;32.05;;;;;;;;;;5037177;28;20034;-86
2021/10/18 13:52:23;;;;;;;70.28;32.78;;;;;;;;;;5021217;28;20057;-84
2021/10/18 13:54:53;;;;;;;65.05;30.65;;;;;;;;;;5018279;28;20080;-83
2021/10/18 13:57:21;;;;;;;65.28;29.75;;;;;;;;;;5017723;28;20100;-83
2021/10/18 14:06:36;;;;;;;56.25;26.25;;;;;;;;;;5019955;28;20072;-81
2021/10/18 14:09:06;;;;;;;65.03;28.30;;;;;;;;;;5023543;28;20100;-84
2021/10/18 14:14:54;;;;;;;56.83;25.85;;;;;;;;;;5023589;28;20095;-83
2021/10/18 14:17:26;;;;;;;59.03;24.33;;;;;;;;;;5024885;28;20049;-82
2021/10/18 14:19:54;;;;;;;58.65;25.17;;;;;;;;;;5025598;28;20053;-82
2021/10/18 14:22:24;;;;;;;55.97;24.90;;;;;;;;;;5025352;28;20046;-83
2021/10/18 14:24:51;;;;;;;61.20;26.38;;;;;;;;;;5023674;28;20045;-83
2021/10/18 14:27:17;;;;;;;61.97;29.23;;;;;;;;;;5023757;28;20107;-83
2021/10/18 14:29:44;;;;;;;62.92;29.65;;;;;;;;;;5023647;28;20050;-84
2021/10/18 14:32:12;;;;;;;57.40;26.75;;;;;;;;;;5024303;28;20050;-84
2021/10/18 14:35:34;;;;;;;65.68;29.48;;;;;;;;;;5025847;28;20100;-84
2021/10/18 14:38:04;;;;;;;55.92;27.77;;;;;;;;;;5041727;28;20111;-83
2021/10/18 14:43:53;;;;;;;53.05;25.80;;;;;;;;;;5038542;28;20095;-82
2021/10/18 14:46:22;;;;;;;59.40;27.30;;;;;;;;;;5026236;28;20077;-83
2021/10/18 14:49:00;;;;;;;52.50;27.08;;;;;;;;;;5025825;28;20453;-87
2021/10/18 14:51:31;;;;;;;54.05;26.27;;;;;;;;;;5027123;28;20064;-84
2021/10/18 14:54:07;;;;;;;54.50;24.58;;;;;;;;;;5030795;28;20057;-85
2021/10/18 14:56:44;;;;;;;;;;;;;;;;;;;;;
2021/10/18 14:59:15;;;;;;;58.90;27.30;;;;;;;;;;5028121;28;20084;-84
2021/10/18 15:01:42;;;;;;;54.28;26.02;;;;;;;;;;5033508;28;20054;-83
2021/10/18 15:04:09;;;;;;;53.70;27.92;;;;;;;;;;5033632;28;20050;-83
2021/10/18 15:06:39;;;;;;;59.75;27.05;;;;;;;;;;5034694;28;20123;-86
2021/10/18 15:09:10;;;;;;;57.53;28.08;;;;;;;;;;5033396;28;20054;-84
2021/10/18 15:11:37;;;;;;;;;;;;;;;;;;5025864;28;20049;-85
2021/10/18 15:14:07;;;;;;;60.83;26.70;;;;;;;;;;5022972;28;19925;-84
2021/10/18 15:16:39;;;;;;;55.70;26.63;;;;;;;;;;5021167;28;20740;-84
2021/10/18 15:19:10;;;;;;;58.80;29.77;;;;;;;;;;5021056;28;20053;-85
2021/10/18 15:21:44;;;;;;;52.35;24.83;;;;;;;;;;5019537;28;20080;-83
2021/10/18 15:24:16;;;;;;;56.30;27.02;;;;;;;;;;5020371;28;20049;-86
2021/10/18 15:26:44;;;;;;;54.83;26.50;;;;;;;;;;5021304;28;20480;-84
2021/10/18 15:29:11;;;;;;;51.20;24.88;;;;;;;;;;5021740;28;20489;-84
2021/10/18 15:31:42;;;;;;;56.50;26.27;;;;;;;;;;5021101;28;20053;-83
2021/10/18 15:34:12;;;;;;;57.30;25.98;;;;;;;;;;5021137;28;20054;-84
2021/10/18 15:36:39;;;;;;;;;;;;;;;;;;5020788;28;20046;-85
2021/10/18 15:39:09;;;;;;;56.88;26.75;;;;;;;;;;5034251;28;19921;-84
2021/10/18 15:41:39;;;;;;;56.50;24.75;;;;;;;;;;5030690;28;20054;-82
2021/10/18 15:44:08;;;;;;;58.45;25.98;;;;;;;;;;5029823;28;20046;-84
2021/10/18 15:46:57;;;;;;;54.65;25.65;;;;;;;;;;5027388;28;20052;-84
2021/10/18 15:49:27;;;;;;;58.08;26.33;;;;;;;;;;4995155;28;20548;-85
2021/10/18 15:51:57;;;;;;;58.43;26.73;;;;;;;;;;5024340;28;20053;-82
2021/10/18 15:54:23;;;;;;;53.83;26.17;;;;;;;;;;5024640;28;20081;-85
2021/10/18 15:56:52;;;;;;;53.55;23.83;;;;;;;;;;5023914;28;20485;-86
2021/10/18 15:59:19;;;;;;;57.65;25.88;;;;;;;;;;5026219;28;20056;-88
2021/10/18 16:01:47;;;;;;;55.17;26.80;;;;;;;;;;5027473;28;20053;-86
2021/10/18 16:04:13;;;;;;;54.55;26.25;;;;;;;;;;5025160;28;20050;-87
2021/10/18 16:06:41;;;;;;;57.33;26.05;;;;;;;;;;5025514;28;20231;-87
2021/10/18 16:09:08;;;;;;;59.25;27.08;;;;;;;;;;5025215;28;20050;-86